Miramar Marine Corps Air Station-Mitscher, CA

3:53 PM PDT on October 20, 2014 (GMT -0700)
Montgomery | Change Station
CLOSE
Current Station
Airport
Location: San Diego Montgomery,
Elevation: 423 ft
Nearby Weather Stations

Elev 423 ft 32.82 °N, 117.14 °W | Updated 1 hour ago

Partly Cloudy
Partly Cloudy
72 °F
Feels Like 72 °F
N
10
Wind Variable Wind from WNW

Today
High -- | Low -- °F
--% Chance of Precip.
Yesterday
High -- | Low -- °F
Precip. -- in
6:56 AM 6:09 PM
Waning Crescent, 8% visible
Pressure 29.88 in
Visibility 10.0 miles
Clouds Few 2100 ft
Dew Point 61 °F
Humidity 68%
Rainfall 0.00 in
Snow Depth Not available.
UV 4 out of 12
Pollen 3.60 out of 12
Ozone Good
PM2.5 Good
Flu Activity Sporadic
METAR KMYF 202153Z 30009KT 10SM FEW021 22/16 A2989 RMK AO2 SLP116 T02220161

More Conditions Fewer Conditions

Pressure 29.88 in
Visibility 10.0 miles
Clouds Few 2100 ft
Dew Point 61 °F
Humidity 68%
Rainfall 0.00 in
Snow Depth Not available.
UV 4 out of 12
Pollen 3.60 out of 12
Ozone Good
PM2.5 Good
Flu Activity Sporadic
METAR KMYF 202153Z 30009KT 10SM FEW021 22/16 A2989 RMK AO2 SLP116 T02220161

More Conditions Fewer Conditions

10-Day Weather Forecast

Almanac

Astronomy

Oct. 20, 2014 Rise Set
Actual Time 6:56 AM PDT 6:09 PM PDT
Civil Twilight 6:31 AM PDT 6:34 PM PDT
Nautical Twilight 6:02 AM PDT 7:03 PM PDT
Astronomical Twilight 5:34 AM PDT 7:31 PM PDT
Moon 3:58 AM PDT 4:26 PM PDT
Length of Visible Light 12h 02m
Length of Day
11h 12m
Waning Crescent, 8% of the Moon is Illuminated
Today
Waning Crescent
Oct 23
New
Oct 30
First Quarter
Nov 6
Full
Nov 14
Last Quarter

Today's Extremes

State Highs State Lows

Community

WunderPhotos

Upload Photos

1,763,541 photos uploaded!

WunderBlogs® & News

By Dr. Jeff Masters
Director of Meteorology, Weather Underground
By Kari Strenfel
Meteorologist, Weather Underground
By Christopher C. Burt
Weather Historian, Weather Underground
October 20, 2014
October 20, 2014
October 20, 2014

Nearby

Air Quality

  Air Quality AQ Index Pollutant
Yesterday Good
OZONE
Yesterday Good
PM2.5
Current Good
PM2.5
Current Good
OZONE
Monday Good
PM2.5
Monday Good
OZONE
Tuesday Good
PM2.5
Tuesday Good
OZONE

Snow Depth

Station Depth Elevation
Leavitt Lake 0 in 9400 ft
Leavitt Meadows 0 in 7200 ft
Sonora Pass 0 in 8800 ft
Summit Meadow 0 in 9122 ft
Burnside Lake 0 in 8139 ft

Earthquake Activity

City Distance Mag. Time & Date
No recent earthquake activity has been reported nearby.
Minimum magnitude displayed is 2.5.

Coastal Water Temperatures

Place Temperature
La Jolla, CA 71.1 °F
San Diego, CA 73.9 °F

Nearby Weather Stations